Time;durP1;ratioP1;P1;durP2;ratioP2;P2;SDS_P1;SDS_P2;PMS_P1;PMS_P2;Temp;Humidity;BMP_temperature;BMP_pressure;BME280_temperature;BME280_humidity;BME280_pressure;Samples;Min_cycle;Max_cycle;Signal;HPM_P1;HPM_P2
2022/02/25 00:02:05;;;;;;;1.00;0.47;;;4.20;99.90;;;;;;6133866;23;20395;-89
2022/02/25 00:04:30;;;;;;;1.43;0.70;;;4.10;99.90;;;;;;6133529;23;20402;-90
2022/02/25 00:06:59;;;;;;;0.50;0.40;;;4.20;99.90;;;;;;6133084;23;20573;-87
2022/02/25 00:09:24;;;;;;;0.57;0.57;;;4.10;99.90;;;;;;6137665;23;20968;-88
2022/02/25 00:11:52;;;;;;;1.53;0.50;;;4.20;99.90;;;;;;6134956;23;20193;-88
2022/02/25 00:14:18;;;;;;;2.40;0.60;;;4.10;99.90;;;;;;6131367;23;20251;-88
2022/02/25 00:16:45;;;;;;;0.60;0.40;;;4.10;99.90;;;;;;6132517;23;20549;-89
2022/02/25 00:19:11;;;;;;;1.83;0.60;;;4.20;99.90;;;;;;6133089;23;20168;-89
2022/02/25 00:21:37;;;;;;;1.20;0.50;;;4.10;99.90;;;;;;6133062;23;20407;-89
2022/02/25 00:24:02;;;;;;;0.57;0.50;;;4.00;99.90;;;;;;6135706;23;20496;-89
2022/02/25 00:26:31;;;;;;;2.40;0.57;;;4.00;99.90;;;;;;6134793;23;20396;-89
2022/02/25 00:28:56;;;;;;;0.70;0.50;;;4.00;99.90;;;;;;6131102;23;20193;-90
2022/02/25 00:31:22;;;;;;;0.50;0.50;;;4.00;99.90;;;;;;6133633;23;20532;-89
2022/02/25 00:33:47;;;;;;;1.40;0.40;;;3.90;99.90;;;;;;6133025;23;20610;-88
2022/02/25 00:36:13;;;;;;;2.93;0.40;;;4.00;99.90;;;;;;6133764;23;20550;-90
2022/02/25 00:38:41;;;;;;;0.87;0.87;;;3.90;99.90;;;;;;6135436;23;20570;-90
2022/02/25 00:41:07;;;;;;;1.10;0.77;;;3.90;99.90;;;;;;6139944;23;20160;-88
2022/02/25 00:43:32;;;;;;;1.23;0.60;;;3.80;99.90;;;;;;6136857;23;20719;-90
2022/02/25 00:46:01;;;;;;;1.03;0.40;;;3.80;99.90;;;;;;6133319;23;20182;-89
2022/02/25 00:48:26;;;;;;;2.03;0.60;;;3.80;99.90;;;;;;6133195;23;20661;-89
2022/02/25 00:50:54;;;;;;;0.73;0.50;;;3.70;99.90;;;;;;6132446;23;20471;-88
2022/02/25 00:53:20;;;;;;;2.30;0.70;;;3.70;99.90;;;;;;6133030;23;20156;-88
2022/02/25 00:55:45;;;;;;;2.60;0.80;;;3.80;99.90;;;;;;6135804;23;20554;-88
2022/02/25 00:58:11;;;;;;;0.60;0.50;;;3.90;99.90;;;;;;6131958;23;20652;-88
2022/02/25 01:00:36;;;;;;;0.57;0.53;;;3.90;99.90;;;;;;6135140;23;20168;-88
2022/02/25 01:03:02;;;;;;;1.27;0.77;;;3.90;99.90;;;;;;6133718;23;20169;-88
2022/02/25 01:05:28;;;;;;;1.30;0.97;;;3.90;99.90;;;;;;6132640;23;20152;-88
2022/02/25 01:07:54;;;;;;;0.83;0.50;;;3.90;99.90;;;;;;6134310;23;20171;-87
2022/02/25 01:10:19;;;;;;;0.97;0.70;;;3.80;99.90;;;;;;6135117;23;20165;-88
2022/02/25 01:12:47;;;;;;;1.03;0.60;;;3.80;99.90;;;;;;6137210;23;20399;-88
2022/02/25 01:15:13;;;;;;;0.50;0.50;;;3.70;99.90;;;;;;6130394;23;20176;-88
2022/02/25 01:17:39;;;;;;;2.10;0.90;;;3.60;99.90;;;;;;6126500;23;20408;-89
2022/02/25 01:20:06;;;;;;;0.70;0.67;;;3.60;99.90;;;;;;6125599;23;20484;-89
2022/02/25 01:22:41;;;;;;;0.73;0.50;;;3.60;99.90;;;;;;6161857;23;20377;-89
2022/02/25 01:25:07;;;;;;;2.03;0.63;;;3.60;99.90;;;;;;6138583;23;20616;-89
2022/02/25 01:27:38;;;;;;;2.07;0.93;;;3.60;99.90;;;;;;6138079;23;20163;-88
2022/02/25 01:30:08;;;;;;;3.23;0.93;;;3.50;99.90;;;;;;6130638;23;20400;-89
2022/02/25 01:32:38;;;;;;;0.80;0.80;;;3.40;99.90;;;;;;6134525;23;20453;-89
2022/02/25 01:35:04;;;;;;;1.17;0.70;;;3.40;99.90;;;;;;6135147;23;20721;-89
2022/02/25 01:37:31;;;;;;;2.50;0.60;;;3.40;99.90;;;;;;6132584;23;20719;-88
2022/02/25 01:39:57;;;;;;;5.40;1.00;;;3.30;99.90;;;;;;6134547;23;21193;-89
2022/02/25 01:42:23;;;;;;;1.33;0.50;;;3.30;99.90;;;;;;6134838;23;20202;-89
2022/02/25 01:44:52;;;;;;;1.47;0.50;;;3.20;99.90;;;;;;6133813;23;20161;-89
2022/02/25 01:47:17;;;;;;;1.40;0.60;;;3.20;99.90;;;;;;6133184;23;20238;-88
2022/02/25 01:49:43;;;;;;;4.93;0.60;;;3.20;99.90;;;;;;6132622;23;20396;-89
2022/02/25 01:52:16;;;;;;;1.07;0.60;;;3.20;99.90;;;;;;6134416;23;20644;-89
2022/02/25 01:54:43;;;;;;;1.47;0.70;;;3.20;99.90;;;;;;6134482;23;20382;-89
2022/02/25 01:57:13;;;;;;;1.83;0.60;;;3.10;99.90;;;;;;6131817;23;20400;-90
2022/02/25 01:59:42;;;;;;;3.03;0.60;;;3.10;99.90;;;;;;6132350;23;20396;-88
2022/02/25 02:02:08;;;;;;;1.33;0.70;;;3.00;99.90;;;;;;6133663;23;20392;-90
2022/02/25 02:04:45;;;;;;;1.63;0.57;;;3.00;99.90;;;;;;6131419;23;20407;-89
2022/02/25 02:07:11;;;;;;;3.23;0.90;;;3.00;99.90;;;;;;6136947;23;20420;-90
2022/02/25 02:09:37;;;;;;;1.17;0.70;;;3.00;99.90;;;;;;6146380;23;20387;-89
2022/02/25 02:12:03;;;;;;;3.03;0.87;;;2.90;99.90;;;;;;6145365;23;20250;-90
2022/02/25 02:14:28;;;;;;;1.30;0.77;;;2.90;99.90;;;;;;6134184;23;20642;-89
2022/02/25 02:16:56;;;;;;;1.10;1.00;;;2.80;99.90;;;;;;6132023;23;20859;-90
2022/02/25 02:19:23;;;;;;;1.77;0.70;;;2.80;99.90;;;;;;6133468;23;20158;-90
2022/02/25 02:21:51;;;;;;;0.73;0.73;;;2.80;99.90;;;;;;6135231;23;20926;-90
2022/02/25 02:24:21;;;;;;;2.43;0.80;;;2.80;99.90;;;;;;6134634;23;20394;-89
2022/02/25 02:26:49;;;;;;;2.63;1.23;;;2.80;99.90;;;;;;6133623;23;20392;-90
2022/02/25 02:29:15;;;;;;;0.97;0.70;;;2.70;99.90;;;;;;6139130;23;20384;-89
2022/02/25 02:31:41;;;;;;;2.40;0.70;;;2.70;99.90;;;;;;6132792;23;20464;-89
2022/02/25 02:34:12;;;;;;;1.77;0.60;;;2.80;99.90;;;;;;6131911;23;20156;-89
2022/02/25 02:36:42;;;;;;;1.30;0.80;;;2.70;99.90;;;;;;6161127;23;20387;-90
2022/02/25 02:39:08;;;;;;;2.20;0.90;;;2.70;99.90;;;;;;6133183;23;20392;-89
2022/02/25 02:41:35;;;;;;;3.17;0.63;;;2.60;99.90;;;;;;6136472;23;20384;-90
2022/02/25 02:44:00;;;;;;;2.70;1.03;;;2.60;99.90;;;;;;6136460;23;20165;-89
2022/02/25 02:46:26;;;;;;;1.87;0.80;;;2.50;99.90;;;;;;6134308;23;20709;-90
2022/02/25 02:48:51;;;;;;;0.50;0.50;;;2.50;99.90;;;;;;6134354;23;20252;-90
2022/02/25 02:51:17;;;;;;;1.13;0.60;;;2.40;99.90;;;;;;6135238;23;20193;-89
2022/02/25 02:53:43;;;;;;;2.40;0.70;;;2.50;99.90;;;;;;6133474;23;20891;-88
2022/02/25 02:56:10;;;;;;;1.50;0.50;;;2.50;99.90;;;;;;6133888;23;20235;-90
2022/02/25 02:58:35;;;;;;;5.03;1.30;;;2.40;99.90;;;;;;6134040;23;20522;-90
2022/02/25 03:01:02;;;;;;;3.70;1.93;;;2.50;99.90;;;;;;6134481;23;20397;-88
2022/02/25 03:03:30;;;;;;;2.10;1.40;;;2.50;99.90;;;;;;6133503;23;20161;-89
2022/02/25 03:05:56;;;;;;;3.03;1.73;;;2.40;99.90;;;;;;6134572;23;20650;-89
2022/02/25 03:08:22;;;;;;;2.47;1.53;;;2.40;99.90;;;;;;6131730;23;20938;-90
2022/02/25 03:10:47;;;;;;;1.50;1.13;;;2.40;99.90;;;;;;6132790;23;20192;-89
2022/02/25 03:13:16;;;;;;;1.00;1.00;;;2.50;99.90;;;;;;6132115;23;20215;-89
2022/02/25 03:15:43;;;;;;;1.73;0.87;;;2.40;99.90;;;;;;6133667;23;20157;-89
2022/02/25 03:18:17;;;;;;;1.20;0.67;;;2.40;99.90;;;;;;6130420;23;20403;-89
2022/02/25 03:20:43;;;;;;;1.67;0.90;;;2.40;99.90;;;;;;6132282;23;20393;-89
2022/02/25 03:23:09;;;;;;;0.80;0.60;;;2.40;99.90;;;;;;6133150;23;20473;-89
2022/02/25 03:25:35;;;;;;;3.10;1.10;;;2.30;99.90;;;;;;6136483;23;20507;-89
2022/02/25 03:28:00;;;;;;;0.70;0.70;;;2.30;99.90;;;;;;6133966;23;20385;-89
2022/02/25 03:30:26;;;;;;;0.73;0.60;;;2.20;99.90;;;;;;6137639;23;20163;-89
2022/02/25 03:32:51;;;;;;;3.27;0.77;;;2.10;99.90;;;;;;6133417;23;20243;-90
2022/02/25 03:35:18;;;;;;;1.90;1.73;;;2.00;99.90;;;;;;6133272;23;20161;-89
2022/02/25 03:37:44;;;;;;;0.60;0.57;;;2.00;99.90;;;;;;6133256;23;20157;-89
2022/02/25 03:40:11;;;;;;;1.70;0.80;;;2.00;99.90;;;;;;6134483;23;20387;-89
2022/02/25 03:42:37;;;;;;;1.40;0.60;;;2.00;99.90;;;;;;6132559;23;20764;-89
2022/02/25 03:45:04;;;;;;;1.53;1.10;;;1.90;99.90;;;;;;6135221;23;20441;-89
2022/02/25 03:47:31;;;;;;;2.03;0.90;;;1.90;99.90;;;;;;6135285;23;20402;-89
2022/02/25 03:49:58;;;;;;;0.97;0.60;;;1.90;99.90;;;;;;6135663;23;20383;-89
2022/02/25 03:52:23;;;;;;;1.80;0.67;;;1.80;99.90;;;;;;6134612;23;20756;-88
2022/02/25 03:54:49;;;;;;;0.87;0.60;;;1.80;99.90;;;;;;6134313;23;20403;-89
2022/02/25 03:57:15;;;;;;;1.37;0.60;;;1.80;99.90;;;;;;6134560;23;20165;-88
2022/02/25 03:59:40;;;;;;;0.73;0.60;;;1.80;99.90;;;;;;6133914;23;20586;-89
2022/02/25 04:02:06;;;;;;;1.13;0.97;;;1.80;99.90;;;;;;6137355;23;20403;-89
2022/02/25 04:04:32;;;;;;;1.03;0.67;;;1.80;99.90;;;;;;6134437;23;20160;-89
2022/02/25 04:06:57;;;;;;;0.87;0.47;;;1.70;99.90;;;;;;6133605;23;20611;-90
2022/02/25 04:09:23;;;;;;;1.93;1.00;;;1.70;99.90;;;;;;6133791;23;20383;-89
2022/02/25 04:11:51;;;;;;;2.00;0.50;;;1.80;99.90;;;;;;6134026;23;20622;-89
2022/02/25 04:14:19;;;;;;;4.43;0.90;;;1.70;99.90;;;;;;6134393;23;20171;-90
2022/02/25 04:16:46;;;;;;;2.77;0.73;;;1.60;99.90;;;;;;6135039;23;20844;-90
2022/02/25 04:19:11;;;;;;;2.20;0.67;;;1.70;99.90;;;;;;6134568;23;20395;-89
2022/02/25 04:21:37;;;;;;;0.70;0.60;;;1.70;99.90;;;;;;6135772;23;20391;-89
2022/02/25 04:24:05;;;;;;;0.90;0.80;;;1.60;99.90;;;;;;6134340;23;20645;-89
2022/02/25 04:26:38;;;;;;;3.70;0.83;;;1.60;99.90;;;;;;6132131;23;20206;-89
2022/02/25 04:29:04;;;;;;;2.77;0.50;;;1.60;99.90;;;;;;6134288;23;20790;-89
2022/02/25 04:31:30;;;;;;;1.40;0.70;;;1.60;99.90;;;;;;6135100;23;20482;-89
2022/02/25 04:33:55;;;;;;;0.80;0.53;;;1.50;99.90;;;;;;6134640;23;20595;-89
2022/02/25 04:36:21;;;;;;;2.60;0.70;;;1.50;99.90;;;;;;6133602;23;20407;-89
2022/02/25 04:38:48;;;;;;;3.10;0.90;;;1.50;99.90;;;;;;6142514;23;20203;-89
2022/02/25 04:41:14;;;;;;;3.87;0.80;;;1.60;99.90;;;;;;6140482;23;20236;-90
2022/02/25 04:43:39;;;;;;;0.87;0.70;;;1.60;99.90;;;;;;6137680;23;20466;-91
2022/02/25 04:46:05;;;;;;;1.43;0.90;;;1.50;99.90;;;;;;6135895;23;20164;-91
2022/02/25 04:48:31;;;;;;;0.87;0.80;;;1.50;99.90;;;;;;6136421;23;20164;-90
2022/02/25 04:50:56;;;;;;;4.00;0.80;;;1.50;99.90;;;;;;6134304;23;20238;-90
2022/02/25 04:53:27;;;;;;;1.13;0.63;;;1.50;99.90;;;;;;6110181;23;20527;-90
2022/02/25 04:55:53;;;;;;;2.40;0.70;;;1.40;99.90;;;;;;6134209;23;20161;-90
2022/02/25 04:58:18;;;;;;;0.73;0.70;;;1.40;99.90;;;;;;6135319;23;20469;-91
2022/02/25 05:00:44;;;;;;;0.63;0.60;;;1.40;99.90;;;;;;6142756;23;20144;-90
2022/02/25 05:03:11;;;;;;;1.70;0.70;;;1.40;99.90;;;;;;6148504;23;20164;-90
2022/02/25 05:05:37;;;;;;;0.80;0.67;;;1.40;99.90;;;;;;6136487;23;20798;-90
2022/02/25 05:08:03;;;;;;;2.27;1.63;;;1.40;99.90;;;;;;6136247;23;20474;-91
2022/02/25 05:10:40;;;;;;;2.60;0.80;;;1.40;99.90;;;;;;6162654;23;20156;-89
2022/02/25 05:13:06;;;;;;;5.27;1.57;;;1.50;99.90;;;;;;6139519;23;20455;-90
2022/02/25 05:21:02;;;;;;;1.50;0.87;;;1.50;99.90;;;;;;6161056;23;20403;-91
2022/02/25 05:23:28;;;;;;;3.40;1.00;;;1.50;99.90;;;;;;6135831;23;21202;-90
2022/02/25 05:25:53;;;;;;;1.63;0.90;;;1.50;99.90;;;;;;6135021;23;20450;-91
2022/02/25 05:28:19;;;;;;;2.77;1.20;;;1.40;99.90;;;;;;6133741;23;20163;-91
2022/02/25 05:30:45;;;;;;;2.30;0.90;;;1.50;99.90;;;;;;6134467;23;20465;-90
2022/02/25 05:33:11;;;;;;;1.13;1.10;;;1.40;99.90;;;;;;6132745;23;20662;-90
2022/02/25 05:35:36;;;;;;;2.70;0.80;;;1.50;99.90;;;;;;6135615;23;20422;-91
2022/02/25 05:38:02;;;;;;;6.63;1.10;;;1.50;99.90;;;;;;6136794;23;20620;-91
2022/02/25 05:40:28;;;;;;;0.60;0.50;;;1.50;99.90;;;;;;6137793;23;20207;-92
2022/02/25 05:42:54;;;;;;;4.83;2.10;;;1.50;99.90;;;;;;6135242;23;20384;-92
2022/02/25 05:45:20;;;;;;;3.13;1.30;;;1.40;99.90;;;;;;6135156;23;20235;-90
2022/02/25 05:47:48;;;;;;;2.33;1.03;;;1.50;99.90;;;;;;6136531;23;20384;-91
2022/02/25 05:50:17;;;;;;;3.80;3.20;;;1.50;99.90;;;;;;6136831;23;20447;-90
2022/02/25 05:52:44;;;;;;;3.13;2.77;;;1.40;99.90;;;;;;6135970;23;20248;-91
2022/02/25 05:55:10;;;;;;;2.23;1.90;;;1.40;99.90;;;;;;6136177;23;20550;-90
2022/02/25 05:57:36;;;;;;;4.90;3.13;;;1.30;99.90;;;;;;6134499;23;20403;-91
2022/02/25 06:00:07;;;;;;;4.00;3.00;;;1.40;99.90;;;;;;6133588;23;20446;-91
2022/02/25 06:02:37;;;;;;;4.10;2.93;;;1.30;99.90;;;;;;6134482;23;20698;-90
2022/02/25 06:05:25;;;;;;;7.53;1.33;;;1.30;99.90;;;;;;6137884;23;20942;-91
2022/02/25 06:08:00;;;;;;;0.70;0.70;;;1.40;99.90;;;;;;6134877;23;20399;-90
2022/02/25 06:10:27;;;;;;;3.10;1.00;;;1.40;99.90;;;;;;6134798;23;20437;-90
2022/02/25 06:12:52;;;;;;;2.77;1.67;;;1.40;99.90;;;;;;6131759;23;20399;-89
2022/02/25 06:15:18;;;;;;;4.80;2.00;;;1.40;99.90;;;;;;6131271;23;20447;-91
2022/02/25 06:17:49;;;;;;;3.43;1.40;;;1.40;99.90;;;;;;6137945;23;20179;-89
2022/02/25 06:20:18;;;;;;;2.67;1.27;;;1.40;99.90;;;;;;6132936;23;20684;-89
2022/02/25 06:22:45;;;;;;;2.07;1.40;;;1.40;99.90;;;;;;6132170;23;20395;-90
2022/02/25 06:25:11;;;;;;;5.07;1.47;;;1.40;99.90;;;;;;6134026;23;20419;-90
2022/02/25 06:27:38;;;;;;;3.13;1.30;;;1.50;99.90;;;;;;6130010;23;20774;-90
2022/02/25 06:30:06;;;;;;;3.10;2.20;;;1.50;99.90;;;;;;6131856;23;20482;-90
2022/02/25 06:32:32;;;;;;;3.07;1.27;;;1.60;99.90;;;;;;6131074;23;20439;-90
2022/02/25 06:34:58;;;;;;;1.40;1.30;;;1.60;99.90;;;;;;6132673;23;20403;-89
2022/02/25 06:37:24;;;;;;;1.43;1.33;;;1.60;99.90;;;;;;6131165;23;20400;-89
2022/02/25 06:39:50;;;;;;;2.90;1.47;;;1.60;99.90;;;;;;6133329;23;20394;-90
2022/02/25 06:42:16;;;;;;;2.27;1.40;;;1.60;99.90;;;;;;6106497;23;20184;-89
2022/02/25 06:44:42;;;;;;;2.10;1.67;;;1.50;99.90;;;;;;6133519;23;20907;-89
2022/02/25 06:47:07;;;;;;;4.77;1.60;;;1.50;99.90;;;;;;6131286;23;20204;-89
2022/02/25 06:49:33;;;;;;;7.93;1.80;;;1.40;99.90;;;;;;6130977;23;20301;-89
2022/02/25 06:51:59;;;;;;;5.40;1.50;;;1.40;99.90;;;;;;6132745;23;20192;-89
2022/02/25 06:54:25;;;;;;;3.07;1.10;;;1.30;99.90;;;;;;6131735;23;20811;-89
2022/02/25 06:56:50;;;;;;;2.77;1.57;;;1.30;99.90;;;;;;6133240;23;20160;-89
2022/02/25 06:59:16;;;;;;;3.73;1.53;;;1.30;99.90;;;;;;6131001;23;20518;-90
2022/02/25 07:01:41;;;;;;;3.43;1.50;;;1.30;99.90;;;;;;6131991;23;20160;-89
2022/02/25 07:04:07;;;;;;;5.93;1.87;;;1.30;99.90;;;;;;6129899;23;20538;-89
2022/02/25 07:06:37;;;;;;;2.80;1.57;;;1.40;99.90;;;;;;6134915;23;20292;-89
2022/02/25 07:09:04;;;;;;;4.30;1.40;;;1.50;99.90;;;;;;6130444;23;20252;-89
2022/02/25 07:11:29;;;;;;;2.80;1.57;;;1.70;99.90;;;;;;6131895;23;20854;-89
2022/02/25 07:13:57;;;;;;;3.33;1.47;;;1.70;99.90;;;;;;6133738;23;20392;-89
2022/02/25 07:16:23;;;;;;;2.27;1.90;;;1.70;99.90;;;;;;6137395;23;20725;-89
2022/02/25 07:18:49;;;;;;;3.10;2.30;;;1.80;99.90;;;;;;6134927;23;21218;-89
2022/02/25 07:21:17;;;;;;;5.97;1.50;;;1.90;99.90;;;;;;6136746;23;20401;-89
2022/02/25 07:23:46;;;;;;;5.20;1.90;;;2.10;99.90;;;;;;6137362;23;20399;-91
2022/02/25 07:26:11;;;;;;;6.03;1.73;;;2.00;99.90;;;;;;6137765;23;20720;-89
2022/02/25 07:28:42;;;;;;;4.17;1.57;;;1.90;99.90;;;;;;6135344;23;20434;-89
2022/02/25 07:31:13;;;;;;;2.70;2.00;;;2.00;99.90;;;;;;6137389;23;20440;-89
2022/02/25 07:33:41;;;;;;;2.80;1.57;;;2.50;99.90;;;;;;6136132;23;20388;-89
2022/02/25 07:36:07;;;;;;;2.17;1.87;;;2.10;99.90;;;;;;6137534;23;20407;-89
2022/02/25 07:38:35;;;;;;;2.60;1.43;;;2.00;99.90;;;;;;6137516;23;20388;-89
2022/02/25 07:41:00;;;;;;;4.73;1.93;;;2.30;99.90;;;;;;6136727;23;20187;-89
2022/02/25 07:43:26;;;;;;;4.30;1.90;;;2.30;99.90;;;;;;6137196;23;20772;-89
2022/02/25 07:45:52;;;;;;;2.90;1.50;;;2.30;99.90;;;;;;6137522;23;20178;-92
2022/02/25 07:48:19;;;;;;;4.53;1.73;;;2.40;99.90;;;;;;6141006;23;20240;-91
2022/02/25 07:50:46;;;;;;;6.63;2.13;;;2.60;99.90;;;;;;6139493;23;20871;-91
2022/02/25 07:53:13;;;;;;;6.80;2.50;;;2.60;99.90;;;;;;6138079;23;20427;-90
2022/02/25 07:55:41;;;;;;;3.37;1.87;;;2.70;99.90;;;;;;6138878;23;20397;-90
2022/02/25 07:58:07;;;;;;;4.97;2.23;;;2.80;99.90;;;;;;6138949;23;20428;-90
2022/02/25 08:00:33;;;;;;;4.80;1.70;;;2.90;99.90;;;;;;6137319;23;20627;-90
2022/02/25 08:03:01;;;;;;;7.97;2.00;;;2.90;99.90;;;;;;6138072;23;20395;-91
2022/02/25 08:05:28;;;;;;;2.70;1.97;;;3.20;99.90;;;;;;6139128;23;20396;-90
2022/02/25 08:07:56;;;;;;;4.33;1.83;;;3.30;99.90;;;;;;6137566;23;20954;-90
2022/02/25 08:10:22;;;;;;;3.23;1.70;;;3.50;99.90;;;;;;6139669;23;20899;-91
2022/02/25 08:12:47;;;;;;;2.83;1.90;;;3.50;99.90;;;;;;6113816;23;20441;-91
2022/02/25 08:15:14;;;;;;;5.00;1.77;;;3.50;99.90;;;;;;6136974;23;20606;-91
2022/02/25 08:17:39;;;;;;;7.20;2.23;;;3.60;99.90;;;;;;6136165;23;20183;-91
2022/02/25 08:20:06;;;;;;;2.93;1.47;;;3.70;99.90;;;;;;6133518;23;20429;-92
2022/02/25 08:22:32;;;;;;;2.70;1.53;;;3.90;99.90;;;;;;6137174;23;20530;-92
2022/02/25 08:24:58;;;;;;;4.37;2.20;;;3.90;99.90;;;;;;6142666;23;20403;-92
2022/02/25 08:27:24;;;;;;;2.63;1.20;;;4.00;99.90;;;;;;6145825;23;20463;-92
2022/02/25 08:29:49;;;;;;;4.03;1.87;;;4.20;99.90;;;;;;6138373;23;20745;-92
2022/02/25 08:32:15;;;;;;;4.13;1.40;;;4.20;99.90;;;;;;6136812;23;21228;-92
2022/02/25 08:34:40;;;;;;;2.90;1.80;;;4.40;99.90;;;;;;6136277;23;20389;-93
2022/02/25 08:37:08;;;;;;;4.17;1.30;;;4.60;99.90;;;;;;6133275;23;20631;-88
2022/02/25 08:39:34;;;;;;;4.63;1.13;;;4.60;99.90;;;;;;6136893;23;20207;-88
2022/02/25 08:42:00;;;;;;;1.87;1.10;;;4.70;99.90;;;;;;6132007;23;20894;-88
2022/02/25 08:44:26;;;;;;;2.20;1.27;;;4.80;99.90;;;;;;6136670;23;20384;-88
2022/02/25 08:46:51;;;;;;;2.80;1.40;;;5.00;99.90;;;;;;6133431;23;20164;-88
2022/02/25 08:49:20;;;;;;;4.33;1.30;;;5.10;99.90;;;;;;6133420;23;20595;-89
2022/02/25 08:51:47;;;;;;;3.70;1.17;;;5.30;99.90;;;;;;6133562;23;20755;-88
2022/02/25 08:54:16;;;;;;;10.07;1.40;;;5.40;99.90;;;;;;6133648;23;20705;-88
2022/02/25 08:56:42;;;;;;;3.07;1.33;;;5.40;99.90;;;;;;6135053;23;20435;-88
2022/02/25 08:59:07;;;;;;;3.80;1.10;;;5.60;99.90;;;;;;6132256;23;20752;-87
2022/02/25 09:01:33;;;;;;;3.50;1.20;;;5.70;99.90;;;;;;6131451;23;20777;-88
2022/02/25 09:04:01;;;;;;;5.13;1.30;;;5.70;99.90;;;;;;6132718;23;20495;-89
2022/02/25 09:06:43;;;;;;;2.87;1.20;;;5.80;99.90;;;;;;6132556;23;20236;-89
2022/02/25 09:09:10;;;;;;;5.90;1.00;;;6.10;99.90;;;;;;6109366;23;20460;-88
2022/02/25 09:11:36;;;;;;;4.87;1.70;;;6.10;99.90;;;;;;6132569;23;20772;-89
2022/02/25 09:14:02;;;;;;;2.67;1.20;;;6.30;99.90;;;;;;6131990;23;20460;-89
2022/02/25 09:16:27;;;;;;;2.57;1.10;;;5.90;99.90;;;;;;6134422;23;20162;-89
2022/02/25 09:18:55;;;;;;;7.10;1.03;;;6.00;99.90;;;;;;6132939;23;20173;-89
2022/02/25 09:21:23;;;;;;;4.30;1.80;;;6.20;99.90;;;;;;6132308;23;20158;-90
2022/02/25 09:23:50;;;;;;;4.83;1.33;;;6.30;99.90;;;;;;6132590;23;20385;-89
2022/02/25 09:26:19;;;;;;;3.07;0.80;;;6.30;99.90;;;;;;6134898;23;20407;-89
2022/02/25 09:28:51;;;;;;;4.67;1.47;;;6.20;99.50;;;;;;6132544;23;20743;-88
2022/02/25 09:31:17;;;;;;;2.33;1.10;;;6.10;99.40;;;;;;6134238;23;20458;-90
2022/02/25 09:33:43;;;;;;;6.80;1.20;;;6.20;99.90;;;;;;6132375;23;20398;-89
2022/02/25 09:36:12;;;;;;;7.50;1.47;;;6.20;99.90;;;;;;6137871;23;20160;-91
2022/02/25 09:38:40;;;;;;;4.20;1.43;;;6.30;99.90;;;;;;6136916;23;20397;-90
2022/02/25 09:41:07;;;;;;;4.87;1.70;;;7.10;99.40;;;;;;6118840;23;20818;-89
2022/02/25 09:43:35;;;;;;;3.23;1.57;;;7.00;97.90;;;;;;6136781;23;20452;-89
2022/02/25 09:46:06;;;;;;;5.83;1.00;;;6.70;97.50;;;;;;6134654;23;20442;-90
2022/02/25 09:48:32;;;;;;;1.33;0.90;;;6.80;96.70;;;;;;6132034;23;20697;-90
2022/02/25 09:50:59;;;;;;;4.37;2.03;;;6.60;97.10;;;;;;6132761;23;20427;-90
2022/02/25 09:53:25;;;;;;;3.10;1.10;;;6.90;97.50;;;;;;6133278;23;20398;-89
2022/02/25 09:55:51;;;;;;;3.33;0.93;;;7.10;96.70;;;;;;6135826;23;20396;-89
2022/02/25 09:58:20;;;;;;;5.63;1.00;;;7.00;95.30;;;;;;6135306;23;20382;-89
2022/02/25 10:00:49;;;;;;;1.23;1.00;;;6.90;94.80;;;;;;6134414;23;20402;-90
2022/02/25 10:03:21;;;;;;;5.80;1.30;;;6.30;95.50;;;;;;6134184;23;20387;-89
2022/02/25 10:05:48;;;;;;;4.30;1.33;;;6.00;96.20;;;;;;6132578;23;20402;-89
2022/02/25 10:08:21;;;;;;;4.47;1.00;;;6.40;96.50;;;;;;6136372;23;20806;-89
2022/02/25 10:10:52;;;;;;;3.70;1.13;;;6.10;95.40;;;;;;6137697;23;20413;-90
2022/02/25 10:13:25;;;;;;;2.63;1.00;;;6.30;95.50;;;;;;6135971;23;20990;-90
2022/02/25 10:15:57;;;;;;;4.27;1.30;;;5.90;95.00;;;;;;6135903;23;20728;-90
2022/02/25 10:18:28;;;;;;;4.17;1.20;;;6.40;95.80;;;;;;6137327;23;20420;-90
2022/02/25 10:21:24;;;;;;;4.07;1.20;;;6.10;95.50;;;;;;6134633;23;20476;-90
2022/02/25 10:24:37;;;;;;;5.90;1.47;;;6.10;93.80;;;;;;6134514;23;20386;-90
2022/02/25 10:27:21;;;;;;;4.57;1.30;;;6.20;94.50;;;;;;6161794;23;20379;-91
2022/02/25 10:30:20;;;;;;;3.60;0.87;;;6.10;93.80;;;;;;6132395;23;20432;-89
2022/02/25 10:32:54;;;;;;;5.13;0.80;;;6.00;94.10;;;;;;6136957;23;20850;-90
2022/02/25 10:35:30;;;;;;;3.07;0.80;;;6.20;94.50;;;;;;6131783;23;20401;-90
2022/02/25 10:38:34;;;;;;;2.30;1.03;;;6.80;93.80;;;;;;6126092;23;20920;-90
2022/02/25 10:41:00;;;;;;;3.27;0.93;;;6.90;92.60;;;;;;6120540;23;20453;-90
2022/02/25 10:43:28;;;;;;;2.50;1.40;;;6.70;93.20;;;;;;6130968;23;20817;-90
2022/02/25 10:46:12;;;;;;;5.40;0.80;;;7.30;93.80;;;;;;6128578;23;20160;-90
2022/02/25 10:48:38;;;;;;;2.30;0.80;;;7.00;94.50;;;;;;6126152;23;20383;-88
2022/02/25 10:51:06;;;;;;;7.30;1.10;;;7.20;94.10;;;;;;6126297;23;20427;-88
2022/02/25 10:53:52;;;;;;;4.20;0.93;;;7.30;93.20;;;;;;6127261;23;20541;-89
2022/02/25 10:56:32;;;;;;;1.77;0.90;;;7.60;92.70;;;;;;6126190;23;20797;-88
2022/02/25 10:59:00;;;;;;;3.60;0.90;;;7.60;93.20;;;;;;6129438;23;20378;-89
2022/02/25 11:01:47;;;;;;;2.53;1.07;;;7.80;93.20;;;;;;6158691;23;20387;-90
2022/02/25 11:04:16;;;;;;;1.90;0.97;;;7.20;93.20;;;;;;6122558;23;20395;-87
2022/02/25 11:06:48;;;;;;;5.50;1.13;;;7.50;93.00;;;;;;6127398;23;20402;-89
2022/02/25 11:09:41;;;;;;;2.77;0.90;;;8.00;92.40;;;;;;6126266;23;20847;-87
2022/02/25 11:12:42;;;;;;;2.70;1.23;;;8.20;91.50;;;;;;6133054;23;20447;-90
2022/02/25 11:15:37;;;;;;;2.67;0.93;;;8.20;91.00;;;;;;6131510;23;20380;-90
2022/02/25 11:18:17;;;;;;;0.90;0.80;;;8.90;91.40;;;;;;6138171;23;20971;-89
2022/02/25 11:20:46;;;;;;;3.60;0.90;;;8.30;89.40;;;;;;6128810;23;20879;-89
2022/02/25 11:23:14;;;;;;;2.47;1.30;;;8.10;90.90;;;;;;6129389;23;20399;-89
2022/02/25 11:25:42;;;;;;;2.80;1.00;;;8.50;91.60;;;;;;6125479;23;20965;-89
2022/02/25 11:28:19;;;;;;;2.10;1.00;;;7.90;91.00;;;;;;6129954;23;20848;-88
2022/02/25 11:31:11;;;;;;;2.23;0.73;;;7.70;90.90;;;;;;6154514;23;20381;-90
2022/02/25 11:33:39;;;;;;;1.60;1.03;;;7.60;90.50;;;;;;6127719;23;20397;-89
2022/02/25 11:36:26;;;;;;;2.20;1.13;;;7.10;90.80;;;;;;6128750;23;20421;-89
2022/02/25 11:39:24;;;;;;;3.97;1.50;;;7.30;91.40;;;;;;6156371;23;20465;-88
2022/02/25 11:42:08;;;;;;;3.40;1.40;;;7.80;91.20;;;;;;6132310;23;20495;-89
2022/02/25 11:44:34;;;;;;;3.33;1.17;;;7.80;90.70;;;;;;6129677;23;20402;-89
2022/02/25 11:47:02;;;;;;;4.83;1.40;;;8.30;91.20;;;;;;6132183;23;20431;-89
2022/02/25 11:49:53;;;;;;;6.57;1.53;;;8.40;90.20;;;;;;6129135;23;20180;-89
2022/02/25 11:52:31;;;;;;;3.23;0.80;;;8.20;90.20;;;;;;6131536;23;20470;-88
2022/02/25 11:55:28;;;;;;;4.83;1.37;;;8.10;87.20;;;;;;6127127;23;20396;-89
2022/02/25 11:58:17;;;;;;;5.40;1.13;;;8.10;88.80;;;;;;6130159;23;20870;-88
2022/02/25 12:01:12;;;;;;;2.07;1.00;;;7.50;88.10;;;;;;6134071;23;20388;-88
2022/02/25 12:04:00;;;;;;;3.77;1.50;;;7.10;87.00;;;;;;6131343;23;20471;-88
2022/02/25 12:06:55;;;;;;;3.57;0.93;;;7.00;88.40;;;;;;6130419;23;20492;-88
2022/02/25 12:09:53;;;;;;;2.23;0.67;;;7.20;88.20;;;;;;6129694;23;20522;-87
2022/02/25 12:12:28;;;;;;;1.70;1.30;;;7.00;88.00;;;;;;6098998;23;20899;-87
2022/02/25 12:15:33;;;;;;;3.33;1.07;;;7.00;88.20;;;;;;6129961;23;20384;-88
2022/02/25 12:17:59;;;;;;;2.80;1.20;;;7.30;87.30;;;;;;6128499;23;20709;-87
2022/02/25 12:20:38;;;;;;;1.93;1.10;;;7.20;86.40;;;;;;6126664;23;20417;-87
2022/02/25 12:23:11;;;;;;;3.40;0.90;;;7.00;86.50;;;;;;6129234;23;20162;-88
2022/02/25 12:25:39;;;;;;;4.33;1.57;;;6.80;86.60;;;;;;6128939;23;20485;-88
2022/02/25 12:28:27;;;;;;;3.40;0.80;;;6.70;87.40;;;;;;6128343;23;20742;-88
2022/02/25 12:31:00;;;;;;;3.40;1.00;;;6.90;87.50;;;;;;6129339;23;20684;-87
2022/02/25 12:33:45;;;;;;;2.10;0.80;;;7.20;88.00;;;;;;6126338;23;20706;-88
2022/02/25 12:36:35;;;;;;;3.43;1.03;;;6.70;87.30;;;;;;6127131;23;20397;-88
2022/02/25 12:39:03;;;;;;;1.70;0.83;;;6.80;88.70;;;;;;6125546;23;20767;-87
2022/02/25 12:41:34;;;;;;;3.80;1.33;;;7.20;89.70;;;;;;6130196;23;20393;-87
2022/02/25 12:44:03;;;;;;;3.53;1.53;;;6.50;87.70;;;;;;6127575;23;20395;-87
2022/02/25 12:46:34;;;;;;;4.07;1.00;;;6.30;88.80;;;;;;6127271;23;20507;-86
2022/02/25 12:49:01;;;;;;;3.20;0.90;;;6.40;90.20;;;;;;6127861;23;20602;-86
2022/02/25 12:51:27;;;;;;;1.93;1.10;;;6.70;90.10;;;;;;6124955;23;20451;-85
2022/02/25 12:54:00;;;;;;;6.77;1.00;;;6.50;90.40;;;;;;6128973;23;20398;-88
2022/02/25 12:56:39;;;;;;;4.10;1.03;;;6.50;90.10;;;;;;6127979;23;20474;-86
2022/02/25 12:59:09;;;;;;;4.97;1.17;;;6.50;89.70;;;;;;6129208;23;20485;-88
2022/02/25 13:01:38;;;;;;;4.23;1.37;;;6.70;90.00;;;;;;6128290;23;20404;-86
2022/02/25 13:04:10;;;;;;;4.37;1.30;;;6.50;90.10;;;;;;6125749;23;20401;-85
2022/02/25 13:06:38;;;;;;;7.07;1.23;;;6.90;90.40;;;;;;6127373;23;20794;-88
2022/02/25 13:09:55;;;;;;;2.60;0.93;;;7.00;90.60;;;;;;6126381;23;20388;-88
2022/02/25 13:12:29;;;;;;;2.97;1.57;;;7.00;90.30;;;;;;6150225;23;20434;-88
2022/02/25 13:15:03;;;;;;;3.07;1.07;;;7.10;91.10;;;;;;6158950;23;20831;-88
2022/02/25 13:17:33;;;;;;;3.37;0.73;;;7.00;90.20;;;;;;6154629;23;20410;-89